Time;durP1;ratioP1;P1;durP2;ratioP2;P2;SDS_P1;SDS_P2;PMS_P1;PMS_P2;Temp;Humidity;BMP_temperature;BMP_pressure;BME280_temperature;BME280_humidity;BME280_pressure;Samples;Min_cycle;Max_cycle;Signal;HPM_P1;HPM_P2
2023/02/03 00:01:53;;;;;;;5.97;1.75;;;-0.80;99.90;;;;;;5044487;28;20072;-70
2023/02/03 00:04:20;;;;;;;1.85;0.52;;;-0.80;99.90;;;;;;5044688;28;20128;-66
2023/02/03 00:06:47;;;;;;;1.08;0.52;;;-0.70;99.90;;;;;;5046658;28;20045;-65
2023/02/03 00:09:14;;;;;;;1.27;0.60;;;-0.80;99.90;;;;;;5045974;28;20044;-66
2023/02/03 00:11:41;;;;;;;2.95;0.50;;;-0.70;99.90;;;;;;5043254;28;20049;-65
2023/02/03 00:14:08;;;;;;;7.40;0.80;;;-0.70;99.90;;;;;;5044815;28;20053;-64
2023/02/03 00:16:35;;;;;;;3.67;0.50;;;-0.70;99.90;;;;;;5044899;28;20076;-69
2023/02/03 00:19:02;;;;;;;3.90;0.82;;;-0.70;99.90;;;;;;5046268;28;20122;-65
2023/02/03 00:21:29;;;;;;;2.72;0.80;;;-0.70;99.90;;;;;;5041055;28;21360;-70
2023/02/03 00:23:56;;;;;;;2.10;0.77;;;-0.60;99.90;;;;;;5047252;28;20124;-63
2023/02/03 00:26:24;;;;;;;1.88;0.65;;;-0.70;99.90;;;;;;5048908;28;20113;-63
2023/02/03 00:28:51;;;;;;;1.58;0.40;;;-0.70;99.90;;;;;;5049027;28;20056;-70
2023/02/03 00:31:21;;;;;;;1.13;0.43;;;-0.70;99.90;;;;;;5048606;28;20041;-69
2023/02/03 00:33:54;;;;;;;4.28;0.73;;;-0.70;99.90;;;;;;5042943;28;20053;-68
2023/02/03 00:36:22;;;;;;;4.05;1.05;;;-0.80;99.90;;;;;;5045598;28;20128;-68
2023/02/03 00:38:49;;;;;;;8.68;1.63;;;-0.90;99.90;;;;;;5046697;28;20115;-65
2023/02/03 00:41:17;;;;;;;26.65;3.72;;;-1.10;99.90;;;;;;5045834;28;20060;-69
2023/02/03 00:43:44;;;;;;;6.30;1.95;;;-1.20;99.90;;;;;;5043223;28;20618;-65
2023/02/03 00:46:13;;;;;;;5.22;1.20;;;-1.30;99.90;;;;;;5046494;28;20543;-67
2023/02/03 00:48:40;;;;;;;6.10;1.45;;;-1.40;99.90;;;;;;5042027;28;20136;-64
2023/02/03 00:51:07;;;;;;;9.48;3.42;;;-1.50;99.90;;;;;;5047209;28;20140;-64
2023/02/03 00:53:34;;;;;;;5.40;1.73;;;-1.60;99.90;;;;;;5043183;28;20073;-68
2023/02/03 00:56:00;;;;;;;4.82;1.80;;;-1.60;99.90;;;;;;5044761;28;20068;-69
2023/02/03 00:58:27;;;;;;;12.43;2.45;;;-1.70;99.90;;;;;;5046839;28;20041;-69
2023/02/03 01:00:57;;;;;;;4.63;1.75;;;-1.80;99.90;;;;;;5044331;28;20044;-74
2023/02/03 01:03:24;;;;;;;2.97;1.90;;;-1.80;99.90;;;;;;5044402;28;20048;-70
2023/02/03 01:05:51;;;;;;;5.28;2.05;;;-1.80;99.90;;;;;;5045468;28;20082;-63
2023/02/03 01:08:18;;;;;;;9.45;1.88;;;-1.90;99.90;;;;;;5046017;28;20053;-74
2023/02/03 01:10:45;;;;;;;3.45;0.98;;;-1.90;99.90;;;;;;5043929;28;21379;-71
2023/02/03 01:13:12;;;;;;;5.82;1.92;;;-2.00;99.90;;;;;;5048169;28;20048;-72
2023/02/03 01:15:48;;;;;;;1.27;0.68;;;-2.10;99.90;;;;;;5045426;28;20053;-75
2023/02/03 01:18:15;;;;;;;2.85;1.42;;;-2.10;99.90;;;;;;5044791;28;20056;-66
2023/02/03 01:20:43;;;;;;;6.22;2.10;;;-2.10;99.90;;;;;;5046622;28;20040;-65
2023/02/03 01:23:10;;;;;;;4.50;1.00;;;-2.10;99.90;;;;;;5049407;28;20065;-67
2023/02/03 01:25:36;;;;;;;3.20;0.70;;;-2.20;99.90;;;;;;5043992;28;20136;-67
2023/02/03 01:28:04;;;;;;;1.17;0.75;;;-2.30;99.90;;;;;;5042830;28;20208;-73
2023/02/03 01:30:32;;;;;;;3.92;1.27;;;-2.30;99.90;;;;;;5047804;28;20053;-68
2023/02/03 01:32:59;;;;;;;9.80;1.48;;;-2.30;99.90;;;;;;5044866;28;20156;-63
2023/02/03 01:35:26;;;;;;;5.57;0.77;;;-2.30;99.90;;;;;;5044454;28;20111;-65
2023/02/03 01:37:52;;;;;;;6.25;1.08;;;-2.40;99.90;;;;;;5042364;28;20059;-77
2023/02/03 01:40:20;;;;;;;4.10;1.88;;;-2.40;99.90;;;;;;5042189;28;20083;-69
2023/02/03 01:42:46;;;;;;;5.82;1.00;;;-2.40;99.90;;;;;;5046244;28;20151;-69
2023/02/03 01:45:13;;;;;;;10.27;1.38;;;-2.50;99.90;;;;;;5044269;28;20045;-68
2023/02/03 01:47:47;;;;;;;6.28;1.40;;;-2.50;99.90;;;;;;5041064;28;20474;-64
2023/02/03 01:50:18;;;;;;;11.48;3.67;;;-2.60;99.90;;;;;;5039810;28;20056;-69
2023/02/03 01:52:50;;;;;;;8.65;1.73;;;-2.60;99.90;;;;;;5044809;28;20372;-67
2023/02/03 01:55:21;;;;;;;4.22;1.70;;;-2.60;99.90;;;;;;5042554;28;20052;-68
2023/02/03 01:57:56;;;;;;;4.55;0.98;;;-2.60;99.90;;;;;;5043113;28;20490;-69
2023/02/03 02:00:24;;;;;;;3.42;1.55;;;-2.60;99.90;;;;;;5046244;28;20052;-63
2023/02/03 02:02:57;;;;;;;11.73;1.55;;;-2.70;99.90;;;;;;5045484;28;20064;-64
2023/02/03 02:05:35;;;;;;;4.50;0.63;;;-2.80;99.90;;;;;;5046186;28;20156;-68
2023/02/03 02:08:04;;;;;;;7.20;2.65;;;-2.80;99.90;;;;;;5044083;28;20045;-70
2023/02/03 02:10:32;;;;;;;1.95;1.02;;;-2.80;99.90;;;;;;5044561;28;20068;-71
2023/02/03 02:13:01;;;;;;;3.05;0.73;;;-2.80;99.90;;;;;;5041235;28;20076;-64
2023/02/03 02:15:48;;;;;;;2.03;0.90;;;-2.90;99.90;;;;;;5045445;28;20049;-65
2023/02/03 02:18:27;;;;;;;1.27;0.73;;;-2.90;99.90;;;;;;5046642;28;20048;-64
2023/02/03 02:21:00;;;;;;;2.47;1.02;;;-3.00;99.90;;;;;;5044444;28;20051;-63
2023/02/03 02:23:33;;;;;;;5.80;1.00;;;-3.00;99.90;;;;;;5041667;28;20099;-71
2023/02/03 02:26:15;;;;;;;4.30;1.33;;;-3.00;99.90;;;;;;5046624;28;20068;-67
2023/02/03 02:29:06;;;;;;;4.05;0.90;;;-3.00;99.90;;;;;;5048870;28;20049;-67
2023/02/03 02:32:13;;;;;;;1.50;0.88;;;-3.10;99.90;;;;;;5042955;28;20056;-72
2023/02/03 02:34:59;;;;;;;3.67;0.93;;;-3.10;99.90;;;;;;5050830;28;20540;-63
2023/02/03 02:37:39;;;;;;;1.13;0.80;;;-3.20;99.90;;;;;;5044545;28;20158;-66
2023/02/03 02:40:30;;;;;;;3.08;1.10;;;-3.20;99.90;;;;;;5045351;28;20041;-67
2023/02/03 02:43:16;;;;;;;2.47;1.35;;;-3.20;99.90;;;;;;5046538;28;20053;-65
2023/02/03 02:45:52;;;;;;;2.00;0.80;;;-3.20;99.90;;;;;;5047896;28;20047;-64
2023/02/03 02:48:48;;;;;;;4.72;1.05;;;-3.20;99.90;;;;;;5048983;28;20810;-67
2023/02/03 02:51:16;;;;;;;1.77;0.80;;;-3.30;99.90;;;;;;5050909;28;20170;-66
2023/02/03 02:53:54;;;;;;;2.10;1.02;;;-3.30;99.90;;;;;;5046874;28;20150;-67
2023/02/03 02:56:24;;;;;;;1.90;0.77;;;-3.40;99.90;;;;;;5050460;28;20651;-68
2023/02/03 02:58:54;;;;;;;5.38;1.63;;;-3.40;99.90;;;;;;5049242;28;20048;-64
2023/02/03 03:01:21;;;;;;;3.08;1.40;;;-3.50;99.90;;;;;;5046501;28;20108;-64
2023/02/03 03:03:49;;;;;;;2.40;1.05;;;-3.50;99.90;;;;;;5046545;28;20131;-67
2023/02/03 03:06:29;;;;;;;1.92;0.75;;;-3.60;99.90;;;;;;5048417;28;20471;-66
2023/02/03 03:09:10;;;;;;;1.40;0.70;;;-3.60;99.90;;;;;;5050190;28;20045;-74
2023/02/03 03:11:47;;;;;;;1.92;1.10;;;-3.60;99.90;;;;;;5048042;28;20053;-68
2023/02/03 03:14:18;;;;;;;1.98;1.00;;;-3.60;99.90;;;;;;5047000;28;20062;-69
2023/02/03 03:16:56;;;;;;;2.70;0.75;;;-3.60;99.90;;;;;;5043446;28;20065;-73
2023/02/03 03:19:27;;;;;;;3.78;1.25;;;-3.70;99.90;;;;;;5046146;28;20048;-67
2023/02/03 03:22:01;;;;;;;1.77;0.85;;;-3.70;99.90;;;;;;5046820;28;20068;-69
2023/02/03 03:24:32;;;;;;;1.95;0.60;;;-3.70;99.90;;;;;;5050114;28;20055;-67
2023/02/03 03:27:23;;;;;;;1.08;0.60;;;-3.70;99.90;;;;;;5047738;28;20047;-73
2023/02/03 03:29:52;;;;;;;;;;;-3.70;99.90;;;;;;5046428;28;20123;-64
2023/02/03 03:32:20;;;;;;;3.20;1.00;;;-3.70;99.90;;;;;;5048742;28;20266;-73
2023/02/03 03:34:47;;;;;;;2.25;1.20;;;-3.70;99.90;;;;;;5046321;28;20047;-69
2023/02/03 03:37:22;;;;;;;1.83;0.57;;;-3.70;99.90;;;;;;5047497;28;20180;-65
2023/02/03 03:40:00;;;;;;;0.75;0.75;;;-3.70;99.90;;;;;;5045243;28;20057;-65
2023/02/03 03:42:46;;;;;;;3.72;1.65;;;-3.70;99.90;;;;;;5048245;28;20049;-64
2023/02/03 03:45:19;;;;;;;16.55;1.13;;;-3.70;99.90;;;;;;5048430;28;20076;-65
2023/02/03 03:48:08;;;;;;;2.15;1.02;;;-3.70;99.90;;;;;;5049270;28;20494;-73
2023/02/03 03:50:52;;;;;;;3.08;1.15;;;-3.70;99.90;;;;;;5049338;28;20167;-67
2023/02/03 03:53:21;;;;;;;3.97;0.60;;;-3.60;99.90;;;;;;5047783;28;20140;-68
2023/02/03 03:55:51;;;;;;;3.73;0.73;;;-3.60;99.90;;;;;;5044857;28;20055;-67
2023/02/03 03:58:30;;;;;;;4.18;1.17;;;-3.60;99.90;;;;;;5045961;28;20041;-64
2023/02/03 04:01:01;;;;;;;1.52;0.77;;;-3.60;99.90;;;;;;5047752;28;20080;-74
2023/02/03 04:03:34;;;;;;;1.30;1.05;;;-3.60;99.90;;;;;;5047065;28;20486;-66
2023/02/03 04:06:01;;;;;;;1.10;0.70;;;-3.60;99.90;;;;;;5046072;28;20052;-66
2023/02/03 04:08:28;;;;;;;2.45;1.38;;;-3.60;99.90;;;;;;5046483;28;20054;-67
2023/02/03 04:10:54;;;;;;;0.87;0.73;;;-3.60;99.90;;;;;;5047531;28;20506;-67
2023/02/03 04:13:21;;;;;;;2.75;1.52;;;-3.60;99.90;;;;;;5047044;28;20447;-69
2023/02/03 04:15:48;;;;;;;3.67;1.05;;;-3.60;99.90;;;;;;5041402;28;20495;-68
2023/02/03 04:18:16;;;;;;;1.47;1.00;;;-3.60;99.90;;;;;;5044887;28;20521;-65
2023/02/03 04:20:43;;;;;;;2.65;1.13;;;-3.70;99.90;;;;;;5047249;28;20041;-63
2023/02/03 04:23:10;;;;;;;2.15;1.40;;;-3.70;99.90;;;;;;5045375;28;20045;-67
2023/02/03 04:25:36;;;;;;;2.83;1.40;;;-3.70;99.90;;;;;;5042426;28;20052;-68
2023/02/03 04:28:04;;;;;;;2.90;0.95;;;-3.60;99.90;;;;;;5046909;28;20052;-71
2023/02/03 04:30:32;;;;;;;2.65;0.88;;;-3.60;99.90;;;;;;5048758;28;20147;-69
2023/02/03 04:32:59;;;;;;;2.88;1.25;;;-3.60;99.90;;;;;;5046535;28;20043;-68
2023/02/03 04:35:26;;;;;;;1.90;1.15;;;-3.60;99.90;;;;;;5046697;28;20514;-64
2023/02/03 04:37:53;;;;;;;4.13;1.10;;;-3.60;99.90;;;;;;5049099;28;20044;-65
2023/02/03 04:40:20;;;;;;;3.20;0.98;;;-3.60;99.90;;;;;;5046028;28;20071;-64
2023/02/03 04:42:46;;;;;;;1.58;1.20;;;-3.60;99.90;;;;;;5046628;28;20071;-71
2023/02/03 04:45:13;;;;;;;6.77;1.00;;;-3.60;99.90;;;;;;5045918;28;20049;-71
2023/02/03 04:47:40;;;;;;;0.87;0.87;;;-3.60;99.90;;;;;;5045129;28;20049;-73
2023/02/03 04:50:08;;;;;;;2.55;1.25;;;-3.60;99.90;;;;;;5044203;28;20053;-76
2023/02/03 04:52:34;;;;;;;4.55;1.42;;;-3.60;99.90;;;;;;5047002;28;20053;-70
2023/02/03 04:55:02;;;;;;;4.32;1.20;;;-3.60;99.90;;;;;;5045905;28;20063;-70
2023/02/03 04:57:29;;;;;;;3.83;1.47;;;-3.60;99.90;;;;;;5046605;28;20560;-65
2023/02/03 04:59:56;;;;;;;1.48;0.80;;;-3.60;99.90;;;;;;5046666;28;20095;-67
2023/02/03 05:02:23;;;;;;;2.42;1.58;;;-3.60;99.90;;;;;;5043916;28;20045;-65
2023/02/03 05:04:50;;;;;;;1.05;0.93;;;-3.60;99.90;;;;;;5045680;28;20055;-66
2023/02/03 05:07:17;;;;;;;3.90;0.93;;;-3.50;99.90;;;;;;5045691;28;20047;-67
2023/02/03 05:09:44;;;;;;;2.47;1.30;;;-3.50;99.90;;;;;;5041736;28;20048;-64
2023/02/03 05:12:11;;;;;;;1.58;1.10;;;-3.50;99.90;;;;;;5043589;28;20036;-66
2023/02/03 05:14:38;;;;;;;4.17;1.80;;;-3.50;99.90;;;;;;5044192;28;20148;-67
2023/02/03 05:17:05;;;;;;;3.78;1.27;;;-3.50;99.90;;;;;;5045010;28;20136;-67
2023/02/03 05:19:31;;;;;;;1.55;1.20;;;-3.50;99.90;;;;;;5041823;28;20041;-70
2023/02/03 05:21:58;;;;;;;1.67;1.17;;;-3.40;99.90;;;;;;5043820;28;20041;-71
2023/02/03 05:24:25;;;;;;;3.38;3.08;;;-3.40;99.90;;;;;;5042825;28;20488;-75
2023/02/03 05:26:52;;;;;;;3.58;1.30;;;-3.40;99.90;;;;;;5044457;28;20064;-64
2023/02/03 05:29:19;;;;;;;2.17;1.40;;;-3.40;99.90;;;;;;5043653;28;20052;-66
2023/02/03 05:31:45;;;;;;;2.17;1.30;;;-3.40;99.90;;;;;;5042565;28;20446;-70
2023/02/03 05:34:12;;;;;;;3.53;1.50;;;-3.40;99.90;;;;;;5042757;28;20049;-66
2023/02/03 05:36:39;;;;;;;9.25;4.05;;;-3.40;99.90;;;;;;5043073;28;20087;-70
2023/02/03 05:39:06;;;;;;;4.70;1.30;;;-3.40;99.90;;;;;;5043172;28;20055;-65
2023/02/03 05:41:51;;;;;;;5.55;1.67;;;-3.40;99.90;;;;;;5040699;28;20474;-75
2023/02/03 05:44:19;;;;;;;2.25;1.20;;;-3.40;99.90;;;;;;5044465;28;20110;-65
2023/02/03 05:46:46;;;;;;;5.65;3.70;;;-3.40;99.90;;;;;;5042505;28;20134;-66
2023/02/03 05:49:13;;;;;;;16.65;1.45;;;-3.40;99.90;;;;;;5044343;28;20049;-74
2023/02/03 05:51:40;;;;;;;2.47;0.90;;;-3.40;99.90;;;;;;5040935;28;20591;-68
2023/02/03 05:54:07;;;;;;;1.65;1.33;;;-3.40;99.90;;;;;;5044927;28;20048;-67
2023/02/03 05:56:34;;;;;;;13.48;2.03;;;-3.40;99.90;;;;;;5045139;28;20123;-65
2023/02/03 05:59:01;;;;;;;22.27;2.28;;;-3.40;99.90;;;;;;5045244;28;20055;-64
2023/02/03 06:01:28;;;;;;;4.20;1.00;;;-3.40;99.90;;;;;;5046237;28;20557;-69
2023/02/03 06:03:55;;;;;;;4.35;1.58;;;-3.50;99.90;;;;;;5047487;28;20078;-66
2023/02/03 06:06:22;;;;;;;15.63;1.83;;;-3.40;99.90;;;;;;5046172;28;20053;-67
2023/02/03 06:08:55;;;;;;;12.93;2.08;;;-3.50;99.90;;;;;;5046081;28;20073;-69
2023/02/03 06:11:23;;;;;;;14.30;1.73;;;-3.50;99.90;;;;;;5046418;28;20041;-69
2023/02/03 06:13:50;;;;;;;9.07;2.38;;;-3.50;99.90;;;;;;5047541;28;20052;-69
2023/02/03 06:16:17;;;;;;;11.82;2.70;;;-3.50;99.90;;;;;;5045688;28;21536;-65
2023/02/03 06:18:44;;;;;;;5.93;2.60;;;-3.50;99.90;;;;;;5047010;28;20056;-69
2023/02/03 06:21:10;;;;;;;4.97;2.53;;;-3.50;99.90;;;;;;5048199;28;20136;-68
2023/02/03 06:23:37;;;;;;;7.93;2.17;;;-3.60;99.90;;;;;;5047042;28;20052;-65
2023/02/03 06:26:04;;;;;;;10.88;2.05;;;-3.50;99.90;;;;;;5046286;28;20045;-69
2023/02/03 06:28:32;;;;;;;7.80;1.95;;;-3.50;99.90;;;;;;5047771;28;20080;-70
2023/02/03 06:30:59;;;;;;;14.73;2.53;;;-3.50;99.90;;;;;;5047463;28;20073;-67
2023/02/03 06:33:26;;;;;;;7.53;2.38;;;-3.50;99.90;;;;;;5047499;28;20072;-70
2023/02/03 06:35:54;;;;;;;7.38;1.65;;;-3.50;99.90;;;;;;5049608;28;20131;-67
2023/02/03 06:38:21;;;;;;;4.68;1.85;;;-3.50;99.90;;;;;;5048622;28;20057;-64
2023/02/03 06:40:48;;;;;;;7.68;1.88;;;-3.40;99.90;;;;;;5047207;28;20044;-75
2023/02/03 06:43:16;;;;;;;18.95;2.60;;;-3.30;99.90;;;;;;5047107;28;20044;-65
2023/02/03 06:45:46;;;;;;;10.70;2.80;;;-3.30;99.90;;;;;;5048470;28;20056;-65
2023/02/03 06:48:13;;;;;;;;;;;-3.20;99.90;;;;;;5051783;28;20084;-67
2023/02/03 06:50:40;;;;;;;5.75;1.38;;;-3.20;99.90;;;;;;5048864;28;19934;-64
2023/02/03 06:53:07;;;;;;;14.95;1.92;;;-3.10;99.90;;;;;;5047940;28;20140;-76
2023/02/03 06:55:34;;;;;;;14.20;2.30;;;-3.10;99.90;;;;;;5049435;28;20143;-67
2023/02/03 06:58:01;;;;;;;12.95;2.08;;;-3.00;99.90;;;;;;5049465;28;20660;-66
2023/02/03 07:00:28;;;;;;;11.80;2.42;;;-3.00;99.90;;;;;;5050297;28;20059;-67
2023/02/03 07:02:57;;;;;;;7.65;2.00;;;-2.90;99.90;;;;;;5049425;28;20097;-68
2023/02/03 07:05:26;;;;;;;10.30;2.88;;;-2.90;99.90;;;;;;5048942;28;20087;-64
2023/02/03 07:07:53;;;;;;;12.10;1.60;;;-2.80;99.90;;;;;;5046308;28;20436;-62
2023/02/03 07:10:20;;;;;;;3.88;2.22;;;-2.80;99.90;;;;;;5047466;28;20147;-63
2023/02/03 07:12:49;;;;;;;5.18;1.80;;;-2.80;99.90;;;;;;5045790;28;20508;-67
2023/02/03 07:15:16;;;;;;;5.32;1.48;;;-2.80;99.90;;;;;;5045350;28;20051;-68
2023/02/03 07:17:50;;;;;;;4.50;1.85;;;-2.70;99.90;;;;;;5044953;28;20143;-63
2023/02/03 07:20:17;;;;;;;11.18;3.45;;;-2.70;99.90;;;;;;5047406;28;20147;-68
2023/02/03 07:22:45;;;;;;;5.53;1.10;;;-2.60;99.90;;;;;;5049538;28;20118;-65
2023/02/03 07:25:12;;;;;;;3.40;1.20;;;-2.60;99.90;;;;;;5044703;28;20057;-63
2023/02/03 07:27:38;;;;;;;6.55;1.60;;;-2.60;99.90;;;;;;5044555;28;20067;-64
2023/02/03 07:30:06;;;;;;;16.00;2.92;;;-2.50;99.90;;;;;;5047441;28;21327;-64
2023/02/03 07:32:33;;;;;;;14.73;3.20;;;-2.50;99.90;;;;;;5045852;28;20063;-69
2023/02/03 07:35:00;;;;;;;7.45;3.08;;;-2.40;99.90;;;;;;5050886;28;20376;-68
2023/02/03 07:37:27;;;;;;;4.20;2.20;;;-2.30;99.90;;;;;;5046955;28;20063;-67
2023/02/03 07:39:53;;;;;;;10.25;3.15;;;-2.30;99.90;;;;;;5049175;28;20151;-68
2023/02/03 07:42:20;;;;;;;5.97;2.42;;;-2.30;99.90;;;;;;5046909;28;20490;-64
2023/02/03 07:44:50;;;;;;;13.18;1.80;;;-2.20;99.90;;;;;;5044807;28;20098;-67
2023/02/03 07:47:17;;;;;;;5.35;1.60;;;-2.20;99.90;;;;;;5044313;28;20056;-69
2023/02/03 07:49:43;;;;;;;5.22;2.00;;;-2.10;99.90;;;;;;5041975;28;20045;-69
2023/02/03 07:52:10;;;;;;;3.15;1.95;;;-2.10;99.90;;;;;;5024630;28;20037;-67
2023/02/03 07:54:37;;;;;;;4.75;2.20;;;-2.00;99.90;;;;;;5045212;28;20037;-68
2023/02/03 07:57:04;;;;;;;7.00;2.58;;;-2.00;99.90;;;;;;5045602;28;20128;-68
2023/02/03 07:59:31;;;;;;;9.52;2.00;;;-1.90;99.90;;;;;;5036475;28;20060;-70
2023/02/03 08:01:58;;;;;;;5.63;2.33;;;-1.90;99.90;;;;;;5045698;28;21366;-67
2023/02/03 08:04:25;;;;;;;7.53;2.92;;;-1.90;99.90;;;;;;5043396;28;20139;-66
2023/02/03 08:06:52;;;;;;;6.30;2.40;;;-1.90;99.90;;;;;;5047383;28;20136;-67
2023/02/03 08:09:19;;;;;;;7.03;2.50;;;-1.80;99.90;;;;;;5044976;28;20106;-66
2023/02/03 08:11:45;;;;;;;5.57;2.78;;;-1.90;99.90;;;;;;5044352;28;20467;-65
2023/02/03 08:14:12;;;;;;;20.77;5.20;;;-1.80;99.90;;;;;;5045651;28;20487;-68
2023/02/03 08:16:39;;;;;;;4.68;3.10;;;-1.80;99.90;;;;;;5044487;28;20125;-67
2023/02/03 08:19:06;;;;;;;3.83;2.78;;;-1.80;99.90;;;;;;5047565;28;20163;-67
2023/02/03 08:21:33;;;;;;;11.30;2.28;;;-1.80;99.90;;;;;;5042465;28;20127;-68
2023/02/03 08:24:00;;;;;;;9.85;3.33;;;-1.80;99.90;;;;;;5044618;28;20058;-66
2023/02/03 08:26:27;;;;;;;5.85;2.33;;;-1.70;99.90;;;;;;5048656;28;20489;-66
2023/02/03 08:28:54;;;;;;;9.02;2.28;;;-1.70;99.90;;;;;;5044308;28;20558;-67
2023/02/03 08:31:21;;;;;;;6.22;2.72;;;-1.70;99.90;;;;;;5047579;28;20068;-68
2023/02/03 08:33:48;;;;;;;6.80;2.13;;;-1.70;99.90;;;;;;5044143;28;20043;-69
2023/02/03 08:36:15;;;;;;;6.43;1.88;;;-1.70;99.90;;;;;;5046297;28;20053;-68
2023/02/03 08:38:43;;;;;;;11.13;2.15;;;-1.60;99.90;;;;;;5045520;28;20082;-67
2023/02/03 08:41:16;;;;;;;5.53;1.95;;;-1.60;99.90;;;;;;5044744;28;20045;-66
2023/02/03 08:43:44;;;;;;;8.85;2.80;;;-1.60;99.90;;;;;;5044721;28;20059;-66
2023/02/03 08:46:12;;;;;;;16.10;3.42;;;-1.60;99.90;;;;;;5044998;28;20081;-68
2023/02/03 08:48:39;;;;;;;3.47;1.70;;;-1.50;99.90;;;;;;5045203;28;20068;-68
2023/02/03 08:51:12;;;;;;;6.93;2.00;;;-1.50;99.90;;;;;;5045034;28;20052;-70
2023/02/03 08:53:39;;;;;;;7.28;1.10;;;-1.50;99.90;;;;;;5044613;28;20152;-68
2023/02/03 08:56:08;;;;;;;19.38;3.45;;;-1.50;99.90;;;;;;5043284;28;20045;-71
2023/02/03 08:58:36;;;;;;;4.43;1.40;;;-1.40;99.90;;;;;;5044433;28;20067;-67
2023/02/03 09:01:10;;;;;;;6.97;1.63;;;-1.40;99.90;;;;;;5045039;28;20060;-68
2023/02/03 09:03:38;;;;;;;6.82;2.55;;;-1.40;99.90;;;;;;5042556;28;20139;-70
2023/02/03 09:06:10;;;;;;;5.30;1.42;;;-1.40;99.90;;;;;;5040873;28;21087;-66
2023/02/03 09:08:37;;;;;;;6.55;2.15;;;-1.40;99.90;;;;;;5043128;28;20552;-67
2023/02/03 09:11:16;;;;;;;1.52;0.93;;;-1.40;99.90;;;;;;5046534;28;20041;-73
2023/02/03 09:13:44;;;;;;;6.57;2.67;;;-1.30;99.90;;;;;;5041882;28;20071;-74
2023/02/03 09:16:13;;;;;;;11.55;2.20;;;-1.30;99.90;;;;;;5042100;28;20059;-66
2023/02/03 09:18:40;;;;;;;9.15;2.20;;;-1.30;99.90;;;;;;5043383;28;20048;-67
2023/02/03 09:21:12;;;;;;;10.23;2.20;;;-1.20;99.90;;;;;;5043404;28;20426;-68
2023/02/03 09:23:59;;;;;;;;;;;-1.20;99.90;;;;;;5042800;28;20044;-73
2023/02/03 09:26:26;;;;;;;7.28;2.20;;;-1.10;99.90;;;;;;5046382;28;20007;-66
2023/02/03 09:28:53;;;;;;;8.95;2.30;;;-1.00;99.90;;;;;;5045434;28;20049;-68
2023/02/03 09:31:20;;;;;;;7.60;1.67;;;-1.00;99.90;;;;;;5044758;28;20062;-67
2023/02/03 09:33:47;;;;;;;2.78;2.08;;;-0.90;99.90;;;;;;5040440;28;20509;-66
2023/02/03 09:36:14;;;;;;;11.85;2.00;;;-0.80;99.90;;;;;;5045376;28;20383;-65
2023/02/03 09:38:41;;;;;;;4.68;2.33;;;-0.80;99.90;;;;;;5043709;28;20132;-68
2023/02/03 09:41:38;;;;;;;5.50;1.23;;;-0.70;99.90;;;;;;5044421;28;20049;-69
2023/02/03 09:44:18;;;;;;;7.55;1.52;;;-0.70;99.90;;;;;;5043777;28;20641;-68
2023/02/03 09:46:49;;;;;;;2.75;2.00;;;-0.60;99.90;;;;;;5042574;28;20048;-68
2023/02/03 09:49:41;;;;;;;5.82;2.20;;;-0.60;99.90;;;;;;5042871;28;20090;-67
2023/02/03 09:52:16;;;;;;;9.43;1.30;;;-0.50;99.90;;;;;;5042244;28;20407;-69
2023/02/03 09:55:20;;;;;;;3.78;0.80;;;-0.40;99.90;;;;;;5043677;28;20102;-69
2023/02/03 09:58:11;;;;;;;9.63;1.88;;;-0.40;99.90;;;;;;5041587;28;20083;-70
2023/02/03 10:00:43;;;;;;;6.57;0.80;;;-0.30;99.90;;;;;;5044109;28;20078;-72
2023/02/03 10:03:29;;;;;;;5.20;0.57;;;-0.30;99.90;;;;;;5042208;28;20160;-67
2023/02/03 10:06:20;;;;;;;2.58;0.98;;;-0.30;99.90;;;;;;5042258;28;20090;-69
2023/02/03 10:08:47;;;;;;;9.50;1.00;;;-0.30;99.90;;;;;;5042988;28;20054;-73
2023/02/03 10:11:29;;;;;;;3.60;1.05;;;-0.20;99.90;;;;;;5042920;28;20407;-70
2023/02/03 10:14:10;;;;;;;9.77;1.52;;;-0.20;99.90;;;;;;5040724;28;20053;-67
2023/02/03 10:17:05;;;;;;;9.15;5.38;;;-0.20;99.90;;;;;;5047200;28;20147;-72
2023/02/03 10:19:50;;;;;;;4.22;1.02;;;-0.10;99.90;;;;;;5042934;28;20299;-72
2023/02/03 10:22:26;;;;;;;7.13;3.55;;;-0.10;99.90;;;;;;5043246;28;20255;-68
2023/02/03 10:25:10;;;;;;;14.40;2.67;;;-0.10;99.90;;;;;;5043536;28;20103;-67
2023/02/03 10:27:37;;;;;;;2.22;0.88;;;-0.10;99.90;;;;;;5041775;28;20041;-67
2023/02/03 10:30:23;;;;;;;4.50;2.05;;;0.00;99.90;;;;;;5042227;28;20076;-66
2023/02/03 10:32:59;;;;;;;11.40;1.63;;;0.00;99.90;;;;;;5044029;28;20055;-64
2023/02/03 10:35:35;;;;;;;5.50;1.33;;;0.10;99.90;;;;;;5040850;28;20102;-69
2023/02/03 10:38:04;;;;;;;8.02;1.30;;;0.10;99.90;;;;;;5044378;28;20551;-66
2023/02/03 10:40:31;;;;;;;4.78;2.30;;;0.20;99.90;;;;;;5043735;28;20049;-67
2023/02/03 10:45:43;;;;;;;6.40;0.90;;;0.30;99.90;;;;;;5041847;28;20815;-64
2023/02/03 10:48:17;;;;;;;3.47;0.73;;;0.30;99.90;;;;;;5044438;28;20147;-65
2023/02/03 10:50:47;;;;;;;9.35;0.85;;;0.40;99.90;;;;;;5045432;28;20451;-61
2023/02/03 10:53:22;;;;;;;3.47;0.77;;;0.40;99.90;;;;;;5046282;28;20081;-65
2023/02/03 10:56:10;;;;;;;19.60;4.60;;;0.50;99.90;;;;;;5045933;28;20052;-65
2023/02/03 10:58:44;;;;;;;1.45;0.85;;;0.50;99.90;;;;;;5047334;28;20131;-63
2023/02/03 11:01:15;;;;;;;9.40;1.20;;;0.50;99.90;;;;;;5050505;28;20056;-68
2023/02/03 11:03:57;;;;;;;6.47;0.70;;;0.50;99.90;;;;;;5046688;28;20049;-65
2023/02/03 11:06:25;;;;;;;4.88;0.60;;;0.50;99.90;;;;;;5049735;28;20134;-69
2023/02/03 11:08:52;;;;;;;7.38;0.63;;;0.50;99.90;;;;;;5049289;28;20062;-68
2023/02/03 11:11:32;;;;;;;6.88;0.88;;;0.60;99.90;;;;;;5048558;28;20049;-65
2023/02/03 11:14:02;;;;;;;8.85;1.20;;;0.60;99.90;;;;;;5046987;28;20130;-65
2023/02/03 11:16:33;;;;;;;1.15;0.85;;;0.60;99.90;;;;;;5048513;28;20463;-67
2023/02/03 11:19:19;;;;;;;2.63;0.88;;;0.60;99.90;;;;;;5045978;28;20052;-68
2023/02/03 11:21:50;;;;;;;10.07;1.00;;;0.60;99.90;;;;;;5043417;28;20049;-67
2023/02/03 11:24:25;;;;;;;4.28;0.65;;;0.60;99.90;;;;;;5044724;28;20134;-68
2023/02/03 11:27:17;;;;;;;2.80;1.30;;;0.60;99.90;;;;;;5047409;28;20540;-71
2023/02/03 11:29:47;;;;;;;3.15;1.33;;;0.60;99.90;;;;;;5045082;28;20133;-64
2023/02/03 11:32:32;;;;;;;6.72;1.23;;;0.70;99.90;;;;;;5046951;28;20059;-64
2023/02/03 11:35:18;;;;;;;2.67;1.38;;;0.70;99.90;;;;;;5045945;28;20478;-66
2023/02/03 11:37:47;;;;;;;1.50;0.70;;;0.70;99.90;;;;;;5044734;28;20041;-65
2023/02/03 11:40:14;;;;;;;6.43;1.20;;;0.70;99.90;;;;;;5045316;28;20044;-64
2023/02/03 11:42:43;;;;;;;3.20;0.77;;;0.80;99.90;;;;;;5043406;28;20048;-63
2023/02/03 11:45:16;;;;;;;1.63;0.33;;;0.80;99.90;;;;;;5044309;28;20052;-69
2023/02/03 11:47:54;;;;;;;3.60;1.58;;;0.80;99.90;;;;;;5042327;28;20053;-66
2023/02/03 11:50:53;;;;;;;15.63;1.63;;;0.80;99.90;;;;;;5043310;28;20076;-65
2023/02/03 11:53:26;;;;;;;7.72;1.40;;;0.90;99.90;;;;;;5027109;28;20126;-64
2023/02/03 11:56:12;;;;;;;11.30;1.23;;;0.90;99.90;;;;;;5044854;28;20049;-65
2023/02/03 11:58:45;;;;;;;17.88;2.03;;;0.90;99.90;;;;;;5046303;28;20049;-66
2023/02/03 12:01:30;;;;;;;9.88;1.17;;;1.00;99.90;;;;;;5044881;28;20048;-64
2023/02/03 12:04:21;;;;;;;4.20;1.00;;;1.00;99.90;;;;;;5042751;28;20368;-64
2023/02/03 12:07:17;;;;;;;2.88;1.30;;;1.00;99.90;;;;;;5043233;28;20041;-70
2023/02/03 12:09:47;;;;;;;2.63;0.75;;;1.00;99.90;;;;;;5008396;28;20780;-63
2023/02/03 12:12:45;;;;;;;0.80;0.57;;;1.10;99.90;;;;;;5045187;28;20049;-65
2023/02/03 12:15:48;;;;;;;3.95;2.15;;;1.10;99.90;;;;;;5041916;28;20045;-70
2023/02/03 12:18:32;;;;;;;2.17;0.40;;;1.10;99.90;;;;;;5039880;28;20048;-67
2023/02/03 12:21:17;;;;;;;11.13;1.20;;;1.10;99.90;;;;;;5042589;28;20143;-66
2023/02/03 12:24:11;;;;;;;2.90;0.73;;;1.20;99.90;;;;;;5038068;28;20388;-64
2023/02/03 12:26:53;;;;;;;1.60;0.28;;;1.20;99.90;;;;;;5041903;28;20098;-69
2023/02/03 12:29:35;;;;;;;1.80;0.30;;;1.20;99.90;;;;;;5043201;28;20056;-67
2023/02/03 12:32:11;;;;;;;7.43;1.20;;;1.20;99.90;;;;;;5038629;28;20059;-71
2023/02/03 12:34:52;;;;;;;3.30;0.40;;;1.20;99.90;;;;;;5040583;28;20044;-68
2023/02/03 12:37:42;;;;;;;9.52;1.08;;;1.20;99.90;;;;;;5039934;28;20051;-66
2023/02/03 12:40:38;;;;;;;5.38;0.68;;;1.20;99.90;;;;;;5042472;28;20049;-66
2023/02/03 12:43:22;;;;;;;3.58;0.17;;;1.20;99.90;;;;;;5046468;28;20053;-66
2023/02/03 12:46:08;;;;;;;1.65;0.45;;;1.20;99.90;;;;;;5042078;28;20068;-68
2023/02/03 12:48:50;;;;;;;3.80;0.80;;;1.20;99.90;;;;;;5044995;28;20045;-68
2023/02/03 12:51:29;;;;;;;2.65;0.90;;;1.20;99.90;;;;;;5042806;28;20363;-66
2023/02/03 12:54:15;;;;;;;14.63;1.33;;;1.30;99.90;;;;;;5043235;28;20087;-69
2023/02/03 12:56:46;;;;;;;3.80;0.40;;;1.30;99.90;;;;;;5044237;28;20624;-66
2023/02/03 12:59:20;;;;;;;4.32;0.68;;;1.40;99.90;;;;;;5042810;28;20045;-65
2023/02/03 13:01:56;;;;;;;2.58;0.30;;;1.50;99.90;;;;;;5042438;28;20041;-70
2023/02/03 13:04:41;;;;;;;2.65;0.55;;;1.50;99.90;;;;;;5045173;28;20060;-65
2023/02/03 13:07:19;;;;;;;12.48;0.95;;;1.50;99.90;;;;;;5042754;28;20048;-66
2023/02/03 13:10:17;;;;;;;0.28;0.17;;;1.50;99.90;;;;;;5038884;28;20175;-68
2023/02/03 13:12:54;;;;;;;7.75;1.20;;;1.50;99.90;;;;;;5044906;28;20045;-65
2023/02/03 13:15:32;;;;;;;11.45;2.40;;;1.50;99.90;;;;;;5046050;28;20064;-71
2023/02/03 13:18:17;;;;;;;5.35;0.50;;;1.40;99.90;;;;;;5043667;28;20045;-66